Flight Track Log - Related Links

Times and Time Zones

All times are in EDT time to prevent confusion due to time zone crossing. See the LBQ611 flight status page for this flight to view local times or setup timezone preferences in your user account.

Time Position Orientation Groundspeed Altitude Reporting Facility
EDT Latitude Longitude Course Direction KTS MPH feet Rate Location/Type
Thu 10:28:41 PM 27.7600 -97.4994 171° South 133 153 600  Level Houston Center
Thu 10:30:00 PM 27.6897 -97.4864 201° Southwest 201 231 3,800 1,886 Climbing Houston Center
Thu 10:31:01 PM 27.6322 -97.5114 203° Southwest 245 282 5,000 1,230 Climbing Houston Center
Thu 10:32:02 PM 27.5578 -97.5472 204° Southwest 282 325 6,300 1,426 Climbing Houston Center
Thu 10:33:03 PM 27.4872 -97.5831 206° Southwest 284 327 7,900 1,636 Climbing Houston Center
Thu 10:34:03 PM 27.4125 -97.6236 204° Southwest 284 327 9,600 1,594 Climbing Houston Center
Thu 10:35:11 PM 27.3292 -97.6658 203° Southwest 290 334 11,300 1,500 Climbing Houston Center
Thu 10:36:11 PM 27.2547 -97.7014 204° Southwest 292 336 12,800 1,339 Climbing Houston Center
Thu 10:37:12 PM 27.1778 -97.7392 204° Southwest 293 337 14,000 563 Climbing Houston Center
Thu 10:38:19 PM 27.0883 -97.7833 206° Southwest 316 364 14,000  Level Houston Center
Thu 10:39:13 PM 27.0156 -97.8236 205° Southwest 320 368 14,000  Level Houston Center
Thu 10:40:14 PM 26.9300 -97.8678 202° Southwest 323 372 14,000  Level Houston Center
Thu 10:41:15 PM 26.8514 -97.9028 206° Southwest 324 373 14,000  Level Houston Center
Thu 10:42:16 PM 26.7614 -97.9514 213° Southwest 327 376 14,000  Level Houston Center
Thu 10:43:11 PM 26.6925 -98.0008 213° Southwest 328 377 14,000  Level Houston Center
Thu 10:44:11 PM 26.6147 -98.0569 211° Southwest 325 374 14,000 -793 Level Houston Center
Thu 10:45:12 PM 26.5392 -98.1081 213° Southwest 321 369 12,400 -2,066 Descending Houston Center
Thu 10:46:13 PM 26.4658 -98.1619 212° Southwest 311 358 9,800 -2,607 Descending Houston Center
Thu 10:47:14 PM 26.3967 -98.2111 212° Southwest 286 329 7,100 -2,705 Descending Houston Center
Thu 10:48:15 PM 26.3319 -98.2561 213° Southwest 272 313 4,300 -2,529 Descending Houston Center
Thu 10:49:15 PM 26.2758 -98.2967 170° South 244 281 2,000 -1,417 Descending Houston Center
Thu 10:50:22 PM 26.2242 -98.2869 170° South 161 185 1,300 -627 Descending Houston Center

Login

Don't have an account? Register now (free) for customized features, flight alerts, and more!